createdAt,value
2023-02-22T00:00:43.046Z,7.52
2023-02-22T00:03:25.020Z,7.45
2023-02-22T00:05:55.012Z,7.36
2023-02-22T00:08:24.926Z,7.47
2023-02-22T00:10:51.970Z,7.47
2023-02-22T00:13:22.838Z,7.52
2023-02-22T00:15:50.215Z,7.79
2023-02-22T00:18:18.815Z,7.90
2023-02-22T00:20:46.076Z,7.95
2023-02-22T00:23:19.154Z,7.99
2023-02-22T00:25:47.473Z,7.95
2023-02-22T00:28:15.319Z,7.78
2023-02-22T00:30:43.751Z,7.82
2023-02-22T00:33:15.408Z,7.83
2023-02-22T00:35:45.915Z,7.84
2023-02-22T00:38:16.278Z,7.86
2023-02-22T00:40:45.301Z,7.95
2023-02-22T00:43:13.073Z,8.03
2023-02-22T00:45:41.287Z,8.24
2023-02-22T00:48:09.412Z,8.31
2023-02-22T00:50:36.678Z,8.40
2023-02-22T00:53:04.667Z,8.18
2023-02-22T00:55:34.988Z,8.13
2023-02-22T00:58:02.355Z,7.96
2023-02-22T01:00:36.376Z,7.90
2023-02-22T01:03:04.982Z,7.93
2023-02-22T01:05:33.264Z,7.88
2023-02-22T01:08:01.841Z,7.99
2023-02-22T01:10:31.367Z,7.86
2023-02-22T01:13:00.072Z,7.96
2023-02-22T01:15:30.775Z,8.02
2023-02-22T01:17:59.524Z,8.10
2023-02-22T01:20:27.661Z,8.04
2023-02-22T01:22:56.398Z,8.04
2023-02-22T01:25:25.928Z,7.90
2023-02-22T01:27:53.521Z,8.10
2023-02-22T01:30:23.386Z,8.22
2023-02-22T01:32:52.925Z,8.23
2023-02-22T01:35:28.857Z,8.48
2023-02-22T01:37:58.073Z,8.67
2023-02-22T01:40:29.694Z,8.84
2023-02-22T01:42:59.825Z,8.91
2023-02-22T01:45:29.962Z,8.88
2023-02-22T01:48:28.692Z,8.86
2023-02-22T01:51:10.595Z,8.91
2023-02-22T01:54:02.122Z,8.91
2023-02-22T01:56:31.350Z,8.85
2023-02-22T01:59:02.739Z,8.81
2023-02-22T02:01:30.085Z,8.89
2023-02-22T02:03:59.911Z,8.84
2023-02-22T02:06:28.828Z,8.78
2023-02-22T02:09:11.064Z,8.90
2023-02-22T02:11:40.629Z,8.90
2023-02-22T02:14:09.266Z,8.83
2023-02-22T02:17:03.046Z,8.75
2023-02-22T02:19:40.084Z,8.74
2023-02-22T02:22:15.958Z,8.76
2023-02-22T02:24:55.315Z,8.91
2023-02-22T02:27:24.523Z,8.93
2023-02-22T02:30:22.292Z,9.15
2023-02-22T02:33:04.921Z,9.08
2023-02-22T02:35:35.381Z,8.98
2023-02-22T02:38:10.884Z,8.85
2023-02-22T02:41:05.762Z,8.78
2023-02-22T02:43:40.045Z,8.68
2023-02-22T02:46:21.422Z,8.74
2023-02-22T02:48:56.849Z,8.86
2023-02-22T02:51:28.647Z,8.84
2023-02-22T02:53:56.159Z,8.91
2023-02-22T02:56:23.863Z,8.89
2023-02-22T02:58:52.891Z,8.96
2023-02-22T03:01:34.920Z,8.85
2023-02-22T03:04:22.981Z,8.83
2023-02-22T03:06:50.025Z,8.93
2023-02-22T03:09:38.935Z,8.97
2023-02-22T03:12:08.304Z,8.93
2023-02-22T03:14:43.806Z,8.91
2023-02-22T03:17:16.725Z,9.03
2023-02-22T03:19:53.776Z,9.02
2023-02-22T03:22:32.633Z,8.88
2023-02-22T03:25:14.380Z,8.86
2023-02-22T03:27:46.473Z,8.86
2023-02-22T03:30:19.483Z,8.76
2023-02-22T03:32:49.550Z,8.79
2023-02-22T03:35:23.009Z,8.82
2023-02-22T03:37:55.906Z,8.70
2023-02-22T03:40:28.604Z,8.78
2023-02-22T03:43:00.506Z,8.83
2023-02-22T03:45:30.041Z,8.84
2023-02-22T03:48:15.833Z,8.93
2023-02-22T03:50:43.376Z,8.86
2023-02-22T03:53:10.987Z,8.77
2023-02-22T03:55:38.838Z,8.83
2023-02-22T03:58:11.059Z,8.95
2023-02-22T04:00:38.691Z,8.85
2023-02-22T04:03:06.272Z,8.66
2023-02-22T04:05:33.521Z,8.64
2023-02-22T04:08:02.062Z,8.68
2023-02-22T04:10:31.725Z,8.57
2023-02-22T04:13:00.031Z,8.52
2023-02-22T04:15:27.325Z,8.49
2023-02-22T04:17:55.816Z,8.51
2023-02-22T04:20:25.580Z,8.50
2023-02-22T04:22:54.130Z,8.59
2023-02-22T04:25:23.126Z,8.59
2023-02-22T04:27:51.310Z,8.63
2023-02-22T04:30:20.710Z,8.51
2023-02-22T04:32:48.704Z,8.56
2023-02-22T04:35:17.569Z,8.61
2023-02-22T04:37:44.656Z,8.65
2023-02-22T04:40:12.344Z,8.51
2023-02-22T04:42:39.959Z,8.51
2023-02-22T04:45:09.308Z,8.63
2023-02-22T04:47:37.532Z,8.52
2023-02-22T04:50:06.739Z,8.48
2023-02-22T04:52:33.932Z,8.47
2023-02-22T04:55:01.451Z,8.40
2023-02-22T04:57:28.707Z,8.35
2023-02-22T04:59:56.166Z,8.37
2023-02-22T05:02:25.471Z,8.40
2023-02-22T05:04:52.662Z,8.69
2023-02-22T05:07:19.850Z,8.97
2023-02-22T05:09:47.341Z,8.95
2023-02-22T05:12:15.182Z,9.11
2023-02-22T05:14:42.746Z,8.87
2023-02-22T05:17:10.172Z,8.56
2023-02-22T05:19:37.404Z,8.32
2023-02-22T05:22:05.733Z,8.21
2023-02-22T05:24:33.166Z,8.07
2023-02-22T05:27:00.407Z,7.84
2023-02-22T05:29:27.575Z,7.73
2023-02-22T05:31:55.114Z,7.63
2023-02-22T05:34:22.354Z,7.54
2023-02-22T05:36:49.522Z,7.49
2023-02-22T05:39:16.949Z,7.44
2023-02-22T05:41:44.160Z,7.43
2023-02-22T05:44:11.498Z,7.40
2023-02-22T05:46:39.122Z,7.46
2023-02-22T05:49:06.390Z,7.45
2023-02-22T05:51:33.781Z,7.49
2023-02-22T05:54:01.396Z,7.52
2023-02-22T05:56:30.530Z,7.62
2023-02-22T05:58:58.460Z,7.63
2023-02-22T06:01:27.053Z,7.81
2023-02-22T06:03:54.523Z,8.22
2023-02-22T06:06:22.438Z,8.31
2023-02-22T06:08:49.825Z,8.27
2023-02-22T06:11:17.658Z,8.05
2023-02-22T06:13:52.601Z,7.93
2023-02-22T06:16:21.882Z,7.86
2023-02-22T06:18:49.569Z,7.80
2023-02-22T06:21:17.726Z,7.77
2023-02-22T06:23:45.463Z,7.69
2023-02-22T06:26:12.701Z,7.68
2023-02-22T06:28:39.879Z,7.69
2023-02-22T06:31:07.317Z,7.71
2023-02-22T06:33:34.486Z,7.73
2023-02-22T06:36:01.737Z,7.71
2023-02-22T06:38:29.310Z,7.76
2023-02-22T06:40:56.755Z,7.78
2023-02-22T06:43:24.926Z,7.76
2023-02-22T06:45:52.810Z,7.85
2023-02-22T06:48:20.041Z,7.95
2023-02-22T06:50:47.363Z,8.13
2023-02-22T06:53:15.359Z,8.25
2023-02-22T06:55:42.505Z,8.41
2023-02-22T06:58:09.602Z,8.55
2023-02-22T07:00:37.051Z,8.60
2023-02-22T07:03:04.955Z,8.58
2023-02-22T07:05:32.122Z,8.60
2023-02-22T07:08:05.340Z,8.68
2023-02-22T07:10:33.943Z,8.77
2023-02-22T07:13:01.977Z,8.70
2023-02-22T07:15:30.846Z,8.65
2023-02-22T07:17:58.093Z,8.70
2023-02-22T07:20:27.322Z,8.73
2023-02-22T07:22:54.571Z,8.70
2023-02-22T07:25:23.390Z,8.73
2023-02-22T07:27:52.481Z,8.81
2023-02-22T07:30:25.986Z,8.88
2023-02-22T07:32:55.419Z,8.96
2023-02-22T07:35:31.102Z,9.03
2023-02-22T07:37:58.933Z,9.07
2023-02-22T07:40:27.449Z,9.31
2023-02-22T07:43:01.393Z,9.40
2023-02-22T07:45:33.607Z,9.51
2023-02-22T07:48:02.212Z,9.67
2023-02-22T07:50:31.393Z,9.71
2023-02-22T07:53:00.883Z,9.59
2023-02-22T07:55:30.266Z,9.61
2023-02-22T07:57:59.998Z,9.58
2023-02-22T08:00:32.682Z,9.61
2023-02-22T08:03:01.862Z,9.68
2023-02-22T08:05:29.961Z,9.62
2023-02-22T08:07:57.382Z,9.61
2023-02-22T08:10:25.790Z,9.68
2023-02-22T08:12:54.063Z,9.77
2023-02-22T08:15:24.416Z,9.85
2023-02-22T08:17:53.443Z,9.99
2023-02-22T08:20:21.337Z,10.14
2023-02-22T08:22:49.428Z,10.23
2023-02-22T08:25:18.653Z,10.36
2023-02-22T08:27:45.941Z,10.50
2023-02-22T08:30:18.925Z,10.72
2023-02-22T08:32:47.599Z,10.79
2023-02-22T08:35:16.592Z,10.82
2023-02-22T08:37:45.284Z,10.80
2023-02-22T08:40:14.990Z,10.99
2023-02-22T08:42:42.278Z,11.15
2023-02-22T08:45:10.084Z,11.24
2023-02-22T08:47:37.529Z,11.28
2023-02-22T08:50:05.454Z,11.21
2023-02-22T08:52:32.723Z,11.34
2023-02-22T08:55:00.161Z,11.43
2023-02-22T08:57:27.318Z,11.52
2023-02-22T08:59:54.554Z,11.47
2023-02-22T09:02:22.601Z,11.44
2023-02-22T09:04:49.928Z,11.53
2023-02-22T09:07:17.566Z,11.48
2023-02-22T09:09:45.494Z,11.52
2023-02-22T09:12:12.939Z,11.52
2023-02-22T09:14:40.076Z,11.65
2023-02-22T09:17:07.593Z,11.73
2023-02-22T09:19:34.871Z,11.75
2023-02-22T09:22:02.132Z,11.82
2023-02-22T09:24:29.688Z,11.86
2023-02-22T09:26:56.904Z,11.93
2023-02-22T09:29:26.118Z,12.01
2023-02-22T09:31:55.359Z,12.14
2023-02-22T09:34:29.664Z,12.18
2023-02-22T09:36:58.180Z,12.23
2023-02-22T09:39:25.695Z,12.34
2023-02-22T09:42:09.624Z,12.40
2023-02-22T09:44:44.363Z,12.52
2023-02-22T09:47:18.170Z,12.51
2023-02-22T09:50:02.424Z,12.55
2023-02-22T09:52:37.425Z,12.55
2023-02-22T09:55:10.002Z,12.69
2023-02-22T09:57:42.461Z,12.80
2023-02-22T10:00:20.353Z,12.77
2023-02-22T10:03:12.307Z,12.77
2023-02-22T10:05:42.017Z,12.87
2023-02-22T10:08:15.247Z,12.86
2023-02-22T10:10:46.002Z,13.03
2023-02-22T10:13:39.309Z,13.12
2023-02-22T10:16:44.425Z,13.42
2023-02-22T10:19:49.670Z,13.14
2023-02-22T10:22:39.336Z,13.63
2023-02-22T10:25:12.931Z,13.87
2023-02-22T10:27:42.932Z,13.92
2023-02-22T10:30:25.480Z,14.22
2023-02-22T10:33:00.227Z,14.53
2023-02-22T10:35:30.131Z,14.63
2023-02-22T10:38:06.956Z,14.68
2023-02-22T10:40:34.933Z,14.60
2023-02-22T10:43:04.693Z,14.80
2023-02-22T10:45:34.358Z,14.88
2023-02-22T10:48:08.583Z,14.87
2023-02-22T10:50:36.137Z,14.83
2023-02-22T10:53:04.122Z,14.91
2023-02-22T10:55:31.340Z,15.04
2023-02-22T10:58:04.570Z,15.13
2023-02-22T11:00:36.692Z,15.07
2023-02-22T11:03:18.891Z,15.01
2023-02-22T11:05:47.001Z,15.05
2023-02-22T11:08:33.190Z,14.93
2023-02-22T11:11:03.357Z,14.64
2023-02-22T11:13:40.266Z,14.32
2023-02-22T11:16:28.612Z,14.21
2023-02-22T11:19:23.209Z,14.40
2023-02-22T11:21:53.442Z,14.27
2023-02-22T11:24:24.255Z,14.18
2023-02-22T11:26:57.550Z,14.13
2023-02-22T11:29:35.652Z,13.87
2023-02-22T11:32:14.156Z,13.95
2023-02-22T11:34:45.169Z,14.02
2023-02-22T11:37:25.915Z,14.19
2023-02-22T11:40:22.038Z,14.25
2023-02-22T11:43:05.924Z,14.19
2023-02-22T11:45:33.241Z,14.14
2023-02-22T11:48:03.168Z,14.29
2023-02-22T11:50:39.269Z,14.30
2023-02-22T11:53:22.148Z,14.29
2023-02-22T11:56:28.406Z,14.36
2023-02-22T11:59:19.210Z,14.46
2023-02-22T12:02:25.224Z,14.50
2023-02-22T12:05:10.774Z,14.58
2023-02-22T12:08:18.864Z,14.82
2023-02-22T12:11:12.442Z,14.66
2023-02-22T12:13:54.569Z,14.43
2023-02-22T12:16:46.897Z,14.46
2023-02-22T12:19:32.322Z,14.23
2023-02-22T12:22:07.930Z,14.14
2023-02-22T12:24:42.422Z,14.12
2023-02-22T12:27:17.196Z,13.88
2023-02-22T12:29:47.125Z,13.86
2023-02-22T12:32:23.656Z,13.90
2023-02-22T12:34:55.322Z,13.88
2023-02-22T12:37:27.826Z,13.80
2023-02-22T12:40:23.947Z,13.89
2023-02-22T12:43:27.563Z,14.06
2023-02-22T12:46:00.901Z,14.21
2023-02-22T12:48:40.782Z,14.12
2023-02-22T12:51:38.892Z,14.10
2023-02-22T12:54:25.708Z,14.12
2023-02-22T12:57:34.300Z,14.19
2023-02-22T13:00:18.175Z,13.98
2023-02-22T13:02:54.463Z,13.81
2023-02-22T13:05:22.049Z,13.84
2023-02-22T13:07:56.864Z,13.91
2023-02-22T13:10:47.236Z,13.97
2023-02-22T13:13:29.123Z,14.07
2023-02-22T13:15:59.720Z,14.06
2023-02-22T13:18:39.809Z,14.47
2023-02-22T13:21:16.491Z,14.51
2023-02-22T13:23:48.998Z,14.60
2023-02-22T13:26:31.776Z,14.46
2023-02-22T13:29:08.729Z,14.32
2023-02-22T13:31:37.665Z,14.17
2023-02-22T13:34:37.849Z,13.94
2023-02-22T13:37:31.889Z,13.87
2023-02-22T13:40:19.919Z,13.87
2023-02-22T13:42:50.094Z,13.83
2023-02-22T13:45:51.676Z,13.76
2023-02-22T13:48:37.270Z,13.82
2023-02-22T13:51:33.167Z,13.82
2023-02-22T13:54:09.038Z,13.67
2023-02-22T13:56:36.305Z,13.76
2023-02-22T13:59:04.345Z,13.79
2023-02-22T14:01:48.837Z,13.77
2023-02-22T14:04:28.694Z,13.75
2023-02-22T14:07:00.855Z,14.05
2023-02-22T14:09:59.100Z,14.11
2023-02-22T14:12:29.033Z,14.23
2023-02-22T14:15:28.204Z,14.29
2023-02-22T14:18:04.847Z,14.20
2023-02-22T14:20:35.946Z,14.08
2023-02-22T14:23:41.094Z,14.16
2023-02-22T14:26:28.026Z,14.15
2023-02-22T14:28:58.165Z,14.10
2023-02-22T14:31:36.465Z,14.15
2023-02-22T14:34:09.097Z,14.12
2023-02-22T14:36:54.530Z,14.30
2023-02-22T14:39:44.211Z,14.21
2023-02-22T14:42:17.881Z,14.12
2023-02-22T14:45:12.540Z,14.07
2023-02-22T14:47:50.196Z,14.15
2023-02-22T14:50:51.301Z,14.15
2023-02-22T14:53:40.817Z,14.20
2023-02-22T14:56:16.131Z,14.15
2023-02-22T14:58:48.944Z,14.20
2023-02-22T15:01:20.227Z,14.18
2023-02-22T15:03:51.484Z,14.16
2023-02-22T15:06:28.731Z,14.20
2023-02-22T15:09:30.229Z,14.22
2023-02-22T15:12:05.472Z,14.12
2023-02-22T15:14:37.817Z,14.35
2023-02-22T15:17:13.673Z,14.55
2023-02-22T15:19:42.008Z,14.65
2023-02-22T15:22:21.418Z,14.61
2023-02-22T15:24:59.366Z,14.77
2023-02-22T15:27:26.835Z,14.65
2023-02-22T15:30:04.690Z,14.58
2023-02-22T15:32:34.461Z,14.53
2023-02-22T15:35:26.506Z,14.38
2023-02-22T15:38:01.810Z,14.10
2023-02-22T15:40:42.930Z,13.95
2023-02-22T15:43:36.241Z,13.96
2023-02-22T15:46:06.733Z,13.91
2023-02-22T15:48:35.705Z,13.92
2023-02-22T15:51:07.123Z,13.90
2023-02-22T15:53:44.397Z,13.83
2023-02-22T15:56:17.450Z,13.66
2023-02-22T15:58:46.638Z,13.44
2023-02-22T16:01:17.751Z,13.23
2023-02-22T16:04:04.699Z,13.19
2023-02-22T16:06:41.970Z,12.99
2023-02-22T16:09:15.857Z,12.93
2023-02-22T16:11:47.029Z,12.77
2023-02-22T16:14:25.234Z,12.77
2023-02-22T16:17:24.735Z,12.69
2023-02-22T16:19:53.131Z,12.59
2023-02-22T16:22:29.176Z,12.49
2023-02-22T16:25:32.906Z,12.51
2023-02-22T16:28:06.094Z,12.43
2023-02-22T16:30:36.055Z,12.33
2023-02-22T16:33:13.666Z,12.20
2023-02-22T16:35:51.646Z,12.18
2023-02-22T16:38:19.465Z,12.07
2023-02-22T16:40:53.791Z,12.01
2023-02-22T16:43:23.847Z,11.90
2023-02-22T16:45:52.992Z,11.83
2023-02-22T16:48:23.137Z,11.82
2023-02-22T16:50:52.037Z,11.72
2023-02-22T16:53:21.502Z,11.70
2023-02-22T16:55:50.163Z,11.65
2023-02-22T16:58:18.181Z,11.62
2023-02-22T17:00:45.643Z,11.54
2023-02-22T17:03:18.696Z,11.53
2023-02-22T17:05:46.177Z,11.48
2023-02-22T17:08:13.293Z,11.38
2023-02-22T17:10:40.356Z,11.36
2023-02-22T17:13:21.807Z,11.34
2023-02-22T17:15:51.233Z,11.28
2023-02-22T17:18:22.891Z,11.24
2023-02-22T17:20:51.704Z,11.22
2023-02-22T17:23:20.047Z,11.23
2023-02-22T17:25:55.647Z,11.15
2023-02-22T17:28:24.640Z,11.03
2023-02-22T17:30:53.352Z,11.05
2023-02-22T17:33:22.916Z,10.97
2023-02-22T17:35:50.275Z,10.93
2023-02-22T17:38:20.386Z,10.92
2023-02-22T17:40:54.845Z,10.87
2023-02-22T17:43:23.279Z,10.82
2023-02-22T17:45:51.101Z,10.87
2023-02-22T17:48:18.581Z,10.91
2023-02-22T17:50:47.895Z,10.85
2023-02-22T17:53:15.753Z,10.88
2023-02-22T17:55:43.259Z,10.86
2023-02-22T17:58:14.921Z,10.83
2023-02-22T18:00:45.783Z,10.82
2023-02-22T18:03:16.271Z,10.75
2023-02-22T18:05:46.302Z,10.68
2023-02-22T18:08:14.821Z,10.59
2023-02-22T18:10:42.900Z,10.53
2023-02-22T18:13:12.189Z,10.42
2023-02-22T18:15:40.237Z,10.41
2023-02-22T18:18:08.480Z,10.34
2023-02-22T18:20:38.576Z,10.37
2023-02-22T18:23:07.531Z,10.33
2023-02-22T18:25:36.238Z,10.35
2023-02-22T18:28:06.180Z,10.32
2023-02-22T18:30:35.917Z,10.27
2023-02-22T18:33:03.812Z,10.15
2023-02-22T18:35:31.058Z,10.16
2023-02-22T18:37:58.500Z,10.17
2023-02-22T18:40:25.646Z,10.19
2023-02-22T18:42:52.812Z,10.17
2023-02-22T18:45:21.189Z,10.10
2023-02-22T18:47:48.705Z,10.03
2023-02-22T18:50:17.270Z,9.99
2023-02-22T18:52:45.846Z,10.08
2023-02-22T18:55:21.076Z,10.11
2023-02-22T18:57:50.742Z,10.14
2023-02-22T19:00:24.211Z,10.11
2023-02-22T19:02:53.657Z,10.08
2023-02-22T19:05:21.109Z,10.04
2023-02-22T19:07:48.411Z,10.03
2023-02-22T19:10:15.978Z,9.99
2023-02-22T19:12:44.670Z,9.86
2023-02-22T19:15:12.121Z,9.73
2023-02-22T19:17:41.753Z,9.74
2023-02-22T19:20:10.774Z,9.71
2023-02-22T19:25:10.365Z,9.96
2023-02-22T19:27:38.013Z,9.74
2023-02-22T19:30:05.705Z,9.69
2023-02-22T19:32:33.599Z,9.64
2023-02-22T19:35:06.720Z,9.72
2023-02-22T19:37:35.694Z,9.87
2023-02-22T19:40:07.245Z,10.01
2023-02-22T19:42:34.859Z,10.18
2023-02-22T19:45:02.128Z,10.28
2023-02-22T19:47:29.506Z,10.31
2023-02-22T19:49:59.672Z,10.13
2023-02-22T19:52:28.940Z,10.02
2023-02-22T19:54:56.517Z,10.05
2023-02-22T19:57:24.349Z,10.06
2023-02-22T19:59:51.854Z,10.12
2023-02-22T20:02:22.550Z,10.03
2023-02-22T20:04:51.256Z,10.07
2023-02-22T20:07:18.477Z,10.14
2023-02-22T20:09:45.662Z,10.02
2023-02-22T20:12:13.208Z,9.94
2023-02-22T20:14:40.463Z,10.07
2023-02-22T20:17:08.692Z,10.12
2023-02-22T20:19:37.668Z,10.09
2023-02-22T20:22:04.819Z,10.16
2023-02-22T20:24:32.053Z,10.15
2023-02-22T20:26:59.559Z,10.11
2023-02-22T20:29:29.734Z,10.14
2023-02-22T20:31:59.305Z,10.20
2023-02-22T20:34:27.170Z,10.38
2023-02-22T20:36:54.221Z,10.47
2023-02-22T20:39:21.294Z,10.52
2023-02-22T20:41:49.023Z,10.52
2023-02-22T20:44:17.847Z,10.45
2023-02-22T20:46:45.958Z,10.32
2023-02-22T20:49:17.196Z,10.23
2023-02-22T20:51:45.462Z,10.24
2023-02-22T20:54:13.041Z,10.23
2023-02-22T20:56:42.094Z,10.19
2023-02-22T20:59:13.010Z,10.39
2023-02-22T21:01:40.492Z,10.53
2023-02-22T21:04:10.016Z,10.65
2023-02-22T21:06:38.973Z,10.51
2023-02-22T21:09:08.753Z,10.54
2023-02-22T21:11:36.019Z,10.55
2023-02-22T21:14:03.696Z,10.62
2023-02-22T21:16:34.013Z,10.65
2023-02-22T21:19:03.528Z,10.61
2023-02-22T21:21:31.831Z,10.48
2023-02-22T21:24:02.252Z,10.44
2023-02-22T21:26:31.319Z,10.49
2023-02-22T21:29:03.867Z,10.46
2023-02-22T21:31:32.015Z,10.58
2023-02-22T21:34:00.274Z,10.51
2023-02-22T21:36:28.281Z,10.54
2023-02-22T21:39:00.619Z,10.46
2023-02-22T21:41:30.073Z,10.39
2023-02-22T21:43:58.498Z,10.51
2023-02-22T21:46:27.553Z,10.57
2023-02-22T21:48:58.522Z,10.47
2023-02-22T21:51:31.445Z,10.41
2023-02-22T21:54:01.444Z,10.39
2023-02-22T21:56:29.829Z,10.51
2023-02-22T21:59:05.277Z,10.50
2023-02-22T22:01:35.310Z,10.49
2023-02-22T22:04:04.583Z,10.47
2023-02-22T22:06:34.365Z,10.38
2023-02-22T22:09:04.977Z,10.41
2023-02-22T22:11:32.401Z,10.33
2023-02-22T22:14:00.413Z,10.29
2023-02-22T22:16:29.722Z,10.38
2023-02-22T22:18:57.769Z,10.38
2023-02-22T22:21:25.491Z,10.34
2023-02-22T22:23:56.671Z,10.40
2023-02-22T22:26:25.323Z,10.39
2023-02-22T22:28:55.958Z,10.47
2023-02-22T22:31:24.800Z,10.44
2023-02-22T22:33:52.576Z,10.45
2023-02-22T22:36:23.683Z,10.30
2023-02-22T22:38:52.703Z,10.26
2023-02-22T22:41:21.723Z,10.32
2023-02-22T22:43:49.473Z,10.23
2023-02-22T22:46:18.041Z,10.13
2023-02-22T22:48:47.250Z,10.22
2023-02-22T22:51:18.509Z,10.13
2023-02-22T22:53:47.757Z,10.13
2023-02-22T22:56:26.886Z,10.08
2023-02-22T22:58:56.591Z,10.10
2023-02-22T23:01:33.604Z,10.02
2023-02-22T23:04:02.606Z,9.99
2023-02-22T23:06:32.998Z,9.92
2023-02-22T23:09:11.440Z,9.84
2023-02-22T23:11:45.174Z,9.78
2023-02-22T23:14:21.447Z,9.74
2023-02-22T23:16:50.056Z,9.84
2023-02-22T23:19:19.283Z,9.77
2023-02-22T23:21:48.072Z,9.72
2023-02-22T23:24:17.465Z,9.64
2023-02-22T23:26:49.025Z,9.64
2023-02-22T23:29:22.912Z,9.68
2023-02-22T23:31:50.612Z,9.72
2023-02-22T23:34:21.146Z,9.74
2023-02-22T23:36:49.358Z,9.71
2023-02-22T23:39:21.915Z,9.75
2023-02-22T23:41:56.516Z,9.61
2023-02-22T23:44:23.870Z,9.59
2023-02-22T23:46:56.934Z,9.63
2023-02-22T23:49:37.890Z,9.69
2023-02-22T23:52:05.921Z,9.75
2023-02-22T23:54:36.503Z,9.74
2023-02-22T23:57:04.884Z,9.71
2023-02-22T23:59:33.008Z,9.67
